sensor_id;sensor_type;location;lat;lon;timestamp;pressure;altitude;pressure_sealevel;temperature;humidity
9462;BME280;4769;42.660;23.262;2023-04-19T00:00:41;93568.13;;;11.57;93.05
9462;BME280;4769;42.660;23.262;2023-04-19T00:03:07;93584.22;;;11.56;93.43
9462;BME280;4769;42.660;23.262;2023-04-19T00:05:33;93576.34;;;11.61;92.97
9462;BME280;4769;42.660;23.262;2023-04-19T00:08:01;93581.91;;;11.59;92.81
9462;BME280;4769;42.660;23.262;2023-04-19T00:10:27;93581.03;;;11.49;93.01
9462;BME280;4769;42.660;23.262;2023-04-19T00:12:52;93575.44;;;11.45;93.28
9462;BME280;4769;42.660;23.262;2023-04-19T00:15:18;93564.31;;;11.28;94.17
9462;BME280;4769;42.660;23.262;2023-04-19T00:17:44;93570.44;;;11.39;94.06
9462;BME280;4769;42.660;23.262;2023-04-19T00:20:10;93566.38;;;11.21;94.81
9462;BME280;4769;42.660;23.262;2023-04-19T00:22:36;93570.03;;;11.10;94.87
9462;BME280;4769;42.660;23.262;2023-04-19T00:25:04;93579.28;;;11.18;95.08
9462;BME280;4769;42.660;23.262;2023-04-19T00:27:30;93568.22;;;11.16;95.20
9462;BME280;4769;42.660;23.262;2023-04-19T00:29:56;93568.75;;;11.18;95.33
9462;BME280;4769;42.660;23.262;2023-04-19T00:32:22;93564.00;;;11.20;94.91
9462;BME280;4769;42.660;23.262;2023-04-19T00:34:47;93570.31;;;11.19;94.97
9462;BME280;4769;42.660;23.262;2023-04-19T00:37:13;93562.44;;;11.29;94.79
9462;BME280;4769;42.660;23.262;2023-04-19T00:39:39;93549.81;;;11.31;94.96
9462;BME280;4769;42.660;23.262;2023-04-19T00:42:08;93565.88;;;11.29;95.44
9462;BME280;4769;42.660;23.262;2023-04-19T00:44:34;93560.34;;;11.26;95.25
9462;BME280;4769;42.660;23.262;2023-04-19T00:47:00;93565.53;;;11.06;96.53
9462;BME280;4769;42.660;23.262;2023-04-19T00:49:26;93568.25;;;11.21;96.62
9462;BME280;4769;42.660;23.262;2023-04-19T00:51:52;93555.25;;;11.09;96.99
9462;BME280;4769;42.660;23.262;2023-04-19T00:54:19;93555.53;;;11.13;96.61
9462;BME280;4769;42.660;23.262;2023-04-19T00:56:45;93564.03;;;11.25;95.69
9462;BME280;4769;42.660;23.262;2023-04-19T00:59:14;93558.69;;;11.15;95.72
9462;BME280;4769;42.660;23.262;2023-04-19T01:01:40;93560.28;;;11.11;95.42
9462;BME280;4769;42.660;23.262;2023-04-19T01:04:07;93557.34;;;11.07;95.13
9462;BME280;4769;42.660;23.262;2023-04-19T01:06:33;93550.69;;;10.95;96.04
9462;BME280;4769;42.660;23.262;2023-04-19T01:08:59;93550.41;;;10.91;96.67
9462;BME280;4769;42.660;23.262;2023-04-19T01:11:25;93558.28;;;10.86;97.31
9462;BME280;4769;42.660;23.262;2023-04-19T01:13:51;93547.72;;;10.81;97.79
9462;BME280;4769;42.660;23.262;2023-04-19T01:16:19;93555.59;;;10.76;98.19
9462;BME280;4769;42.660;23.262;2023-04-19T01:18:45;93550.59;;;10.80;98.36
9462;BME280;4769;42.660;23.262;2023-04-19T01:21:11;93548.78;;;10.80;97.85
9462;BME280;4769;42.660;23.262;2023-04-19T01:23:39;93553.13;;;10.60;99.78
9462;BME280;4769;42.660;23.262;2023-04-19T01:26:05;93550.38;;;10.50;100.00
9462;BME280;4769;42.660;23.262;2023-04-19T01:28:31;93535.09;;;10.47;100.00
9462;BME280;4769;42.660;23.262;2023-04-19T01:30:57;93542.78;;;10.53;100.00
9462;BME280;4769;42.660;23.262;2023-04-19T01:33:23;93549.34;;;10.51;100.00
9462;BME280;4769;42.660;23.262;2023-04-19T01:35:49;93547.16;;;10.38;100.00
9462;BME280;4769;42.660;23.262;2023-04-19T01:38:15;93542.69;;;10.38;100.00
9462;BME280;4769;42.660;23.262;2023-04-19T01:40:43;93543.59;;;10.59;100.00
9462;BME280;4769;42.660;23.262;2023-04-19T01:43:11;93544.16;;;10.61;100.00
9462;BME280;4769;42.660;23.262;2023-04-19T01:45:36;93539.19;;;10.69;100.00
9462;BME280;4769;42.660;23.262;2023-04-19T01:48:02;93535.84;;;10.79;100.00
9462;BME280;4769;42.660;23.262;2023-04-19T01:50:28;93543.53;;;10.85;100.00
9462;BME280;4769;42.660;23.262;2023-04-19T01:52:54;93539.56;;;10.83;100.00
9462;BME280;4769;42.660;23.262;2023-04-19T01:55:20;93533.69;;;10.76;100.00
9462;BME280;4769;42.660;23.262;2023-04-19T01:57:48;93545.41;;;10.95;100.00
9462;BME280;4769;42.660;23.262;2023-04-19T02:00:17;93537.41;;;10.80;100.00
9462;BME280;4769;42.660;23.262;2023-04-19T02:02:43;93536.66;;;10.89;100.00
9462;BME280;4769;42.660;23.262;2023-04-19T02:05:09;93539.03;;;10.86;100.00
9462;BME280;4769;42.660;23.262;2023-04-19T02:07:37;93543.94;;;10.67;100.00
9462;BME280;4769;42.660;23.262;2023-04-19T02:10:03;93533.94;;;10.74;100.00
9462;BME280;4769;42.660;23.262;2023-04-19T02:12:29;93541.91;;;10.43;100.00
9462;BME280;4769;42.660;23.262;2023-04-19T02:14:58;93548.84;;;10.54;100.00
9462;BME280;4769;42.660;23.262;2023-04-19T02:17:24;93549.59;;;10.49;100.00
9462;BME280;4769;42.660;23.262;2023-04-19T02:19:50;93546.66;;;10.41;100.00
9462;BME280;4769;42.660;23.262;2023-04-19T02:22:16;93549.88;;;10.16;100.00
9462;BME280;4769;42.660;23.262;2023-04-19T02:24:42;93553.22;;;10.07;100.00
9462;BME280;4769;42.660;23.262;2023-04-19T02:27:08;93546.22;;;10.22;100.00
9462;BME280;4769;42.660;23.262;2023-04-19T02:29:33;93542.72;;;10.12;100.00
9462;BME280;4769;42.660;23.262;2023-04-19T02:32:02;93552.28;;;10.18;100.00
9462;BME280;4769;42.660;23.262;2023-04-19T02:34:28;93537.00;;;10.20;100.00
9462;BME280;4769;42.660;23.262;2023-04-19T02:36:53;93546.06;;;10.34;100.00
9462;BME280;4769;42.660;23.262;2023-04-19T02:39:19;93532.72;;;10.45;100.00
9462;BME280;4769;42.660;23.262;2023-04-19T02:41:45;93537.88;;;10.30;100.00
9462;BME280;4769;42.660;23.262;2023-04-19T02:44:10;93538.47;;;10.42;100.00
9462;BME280;4769;42.660;23.262;2023-04-19T02:46:36;93531.41;;;10.11;100.00
9462;BME280;4769;42.660;23.262;2023-04-19T02:49:05;93535.47;;;9.97;100.00
9462;BME280;4769;42.660;23.262;2023-04-19T02:51:30;93531.91;;;10.08;100.00
9462;BME280;4769;42.660;23.262;2023-04-19T02:53:56;93521.69;;;10.17;100.00
9462;BME280;4769;42.660;23.262;2023-04-19T02:56:22;93525.16;;;10.22;100.00
9462;BME280;4769;42.660;23.262;2023-04-19T02:58:48;93532.00;;;10.23;100.00
9462;BME280;4769;42.660;23.262;2023-04-19T03:01:13;93529.78;;;10.10;100.00
9462;BME280;4769;42.660;23.262;2023-04-19T03:03:39;93526.97;;;10.22;100.00
9462;BME280;4769;42.660;23.262;2023-04-19T03:06:07;93534.81;;;10.12;100.00
9462;BME280;4769;42.660;23.262;2023-04-19T03:08:33;93528.56;;;10.18;100.00
9462;BME280;4769;42.660;23.262;2023-04-19T03:10:59;93529.13;;;10.25;100.00
9462;BME280;4769;42.660;23.262;2023-04-19T03:13:25;93530.63;;;10.16;100.00
9462;BME280;4769;42.660;23.262;2023-04-19T03:15:51;93532.06;;;10.02;100.00
9462;BME280;4769;42.660;23.262;2023-04-19T03:18:16;93529.25;;;9.82;100.00
9462;BME280;4769;42.660;23.262;2023-04-19T03:20:42;93535.00;;;10.05;100.00
9462;BME280;4769;42.660;23.262;2023-04-19T03:23:11;93532.69;;;10.09;100.00
9462;BME280;4769;42.660;23.262;2023-04-19T03:25:36;93533.47;;;10.09;100.00
9462;BME280;4769;42.660;23.262;2023-04-19T03:28:02;93535.75;;;10.01;100.00
9462;BME280;4769;42.660;23.262;2023-04-19T03:30:28;93537.34;;;9.75;100.00
9462;BME280;4769;42.660;23.262;2023-04-19T03:32:54;93534.78;;;9.54;100.00
9462;BME280;4769;42.660;23.262;2023-04-19T03:35:19;93529.28;;;9.55;100.00
9462;BME280;4769;42.660;23.262;2023-04-19T03:37:45;93533.44;;;9.78;100.00
9462;BME280;4769;42.660;23.262;2023-04-19T03:40:14;93538.47;;;10.06;100.00
9462;BME280;4769;42.660;23.262;2023-04-19T03:42:40;93544.47;;;10.01;100.00
9462;BME280;4769;42.660;23.262;2023-04-19T03:45:06;93533.66;;;10.03;100.00
9462;BME280;4769;42.660;23.262;2023-04-19T03:47:32;93528.84;;;9.95;100.00
9462;BME280;4769;42.660;23.262;2023-04-19T03:49:58;93529.44;;;10.02;100.00
9462;BME280;4769;42.660;23.262;2023-04-19T03:52:24;93538.00;;;10.14;100.00
9462;BME280;4769;42.660;23.262;2023-04-19T03:54:49;93531.16;;;10.13;100.00
9462;BME280;4769;42.660;23.262;2023-04-19T03:57:18;93534.00;;;10.06;100.00
9462;BME280;4769;42.660;23.262;2023-04-19T03:59:44;93531.91;;;10.08;100.00
9462;BME280;4769;42.660;23.262;2023-04-19T04:02:09;93528.66;;;10.01;100.00
9462;BME280;4769;42.660;23.262;2023-04-19T04:04:35;93527.22;;;9.89;100.00
9462;BME280;4769;42.660;23.262;2023-04-19T04:07:01;93528.78;;;10.11;100.00
9462;BME280;4769;42.660;23.262;2023-04-19T04:09:27;93525.03;;;10.07;100.00
9462;BME280;4769;42.660;23.262;2023-04-19T04:11:52;93526.19;;;9.90;100.00
9462;BME280;4769;42.660;23.262;2023-04-19T04:14:21;93537.09;;;10.03;100.00
9462;BME280;4769;42.660;23.262;2023-04-19T04:16:47;93532.81;;;10.24;100.00
9462;BME280;4769;42.660;23.262;2023-04-19T04:19:12;93533.88;;;10.23;100.00
9462;BME280;4769;42.660;23.262;2023-04-19T04:21:38;93535.28;;;10.35;100.00
9462;BME280;4769;42.660;23.262;2023-04-19T04:24:05;93546.53;;;10.26;100.00
9462;BME280;4769;42.660;23.262;2023-04-19T04:26:30;93533.94;;;10.33;100.00
9462;BME280;4769;42.660;23.262;2023-04-19T04:28:56;93531.63;;;10.41;100.00
9462;BME280;4769;42.660;23.262;2023-04-19T04:31:24;93539.56;;;10.46;100.00
9462;BME280;4769;42.660;23.262;2023-04-19T04:33:50;93527.63;;;10.34;100.00
9462;BME280;4769;42.660;23.262;2023-04-19T04:36:16;93532.59;;;10.30;100.00
9462;BME280;4769;42.660;23.262;2023-04-19T04:38:42;93538.69;;;10.36;100.00
9462;BME280;4769;42.660;23.262;2023-04-19T04:41:07;93538.97;;;10.34;100.00
9462;BME280;4769;42.660;23.262;2023-04-19T04:43:33;93541.16;;;10.47;100.00
9462;BME280;4769;42.660;23.262;2023-04-19T04:45:59;93539.06;;;10.49;100.00
9462;BME280;4769;42.660;23.262;2023-04-19T04:48:27;93543.88;;;10.57;100.00
9462;BME280;4769;42.660;23.262;2023-04-19T04:50:53;93545.91;;;10.50;100.00
9462;BME280;4769;42.660;23.262;2023-04-19T04:53:18;93547.41;;;10.36;100.00
9462;BME280;4769;42.660;23.262;2023-04-19T04:55:44;93551.47;;;10.17;100.00
9462;BME280;4769;42.660;23.262;2023-04-19T04:58:10;93555.59;;;10.08;100.00
9462;BME280;4769;42.660;23.262;2023-04-19T05:00:35;93560.56;;;9.78;100.00
9462;BME280;4769;42.660;23.262;2023-04-19T05:03:01;93550.38;;;9.87;100.00
9462;BME280;4769;42.660;23.262;2023-04-19T05:05:29;93553.13;;;10.02;100.00
9462;BME280;4769;42.660;23.262;2023-04-19T05:07:55;93557.63;;;10.01;100.00
9462;BME280;4769;42.660;23.262;2023-04-19T05:10:21;93557.19;;;10.09;100.00
9462;BME280;4769;42.660;23.262;2023-04-19T05:12:46;93560.19;;;10.18;100.00
9462;BME280;4769;42.660;23.262;2023-04-19T05:15:12;93556.03;;;10.27;100.00
9462;BME280;4769;42.660;23.262;2023-04-19T05:17:38;93558.19;;;10.35;100.00
9462;BME280;4769;42.660;23.262;2023-04-19T05:20:04;93561.06;;;10.33;100.00
9462;BME280;4769;42.660;23.262;2023-04-19T05:22:33;93565.97;;;10.20;100.00
9462;BME280;4769;42.660;23.262;2023-04-19T05:24:59;93563.16;;;10.31;100.00
9462;BME280;4769;42.660;23.262;2023-04-19T05:27:24;93561.13;;;10.38;100.00
9462;BME280;4769;42.660;23.262;2023-04-19T05:29:50;93564.53;;;10.39;100.00
9462;BME280;4769;42.660;23.262;2023-04-19T05:32:16;93559.75;;;10.36;100.00
9462;BME280;4769;42.660;23.262;2023-04-19T05:34:41;93567.31;;;10.59;100.00
9462;BME280;4769;42.660;23.262;2023-04-19T05:37:07;93554.06;;;10.49;100.00
9462;BME280;4769;42.660;23.262;2023-04-19T05:39:35;93557.66;;;10.33;100.00
9462;BME280;4769;42.660;23.262;2023-04-19T05:42:01;93560.50;;;10.26;100.00
9462;BME280;4769;42.660;23.262;2023-04-19T05:44:27;93564.69;;;10.22;100.00
9462;BME280;4769;42.660;23.262;2023-04-19T05:46:52;93571.34;;;10.35;100.00
9462;BME280;4769;42.660;23.262;2023-04-19T05:49:18;93568.66;;;10.25;100.00
9462;BME280;4769;42.660;23.262;2023-04-19T05:51:44;93559.75;;;10.36;100.00
9462;BME280;4769;42.660;23.262;2023-04-19T05:54:10;93562.28;;;10.21;100.00
9462;BME280;4769;42.660;23.262;2023-04-19T05:56:38;93565.53;;;10.28;100.00
9462;BME280;4769;42.660;23.262;2023-04-19T05:59:04;93557.69;;;10.38;100.00
9462;BME280;4769;42.660;23.262;2023-04-19T06:01:30;93563.91;;;10.58;100.00
9462;BME280;4769;42.660;23.262;2023-04-19T06:03:56;93570.75;;;10.59;100.00
9462;BME280;4769;42.660;23.262;2023-04-19T06:06:22;93563.22;;;10.36;100.00
9462;BME280;4769;42.660;23.262;2023-04-19T06:08:48;93567.25;;;10.49;100.00
9462;BME280;4769;42.660;23.262;2023-04-19T06:11:13;93569.78;;;10.70;100.00
9462;BME280;4769;42.660;23.262;2023-04-19T06:13:41;93572.50;;;10.80;100.00
9462;BME280;4769;42.660;23.262;2023-04-19T06:16:07;93574.78;;;10.72;100.00
9462;BME280;4769;42.660;23.262;2023-04-19T06:18:33;93570.16;;;10.89;100.00
9462;BME280;4769;42.660;23.262;2023-04-19T06:20:59;93566.34;;;11.11;100.00
9462;BME280;4769;42.660;23.262;2023-04-19T06:23:24;93571.38;;;11.18;100.00
9462;BME280;4769;42.660;23.262;2023-04-19T06:25:50;93574.53;;;11.15;99.10
9462;BME280;4769;42.660;23.262;2023-04-19T06:28:16;93568.59;;;10.88;100.00
9462;BME280;4769;42.660;23.262;2023-04-19T06:30:44;93577.91;;;10.64;100.00
9462;BME280;4769;42.660;23.262;2023-04-19T06:33:10;93570.22;;;10.57;100.00
9462;BME280;4769;42.660;23.262;2023-04-19T06:35:36;93574.16;;;10.55;100.00
9462;BME280;4769;42.660;23.262;2023-04-19T06:38:02;93578.16;;;10.57;100.00
9462;BME280;4769;42.660;23.262;2023-04-19T06:40:27;93593.53;;;10.39;100.00
9462;BME280;4769;42.660;23.262;2023-04-19T06:42:53;93584.22;;;10.26;100.00
9462;BME280;4769;42.660;23.262;2023-04-19T06:45:19;93578.66;;;10.23;100.00
9462;BME280;4769;42.660;23.262;2023-04-19T06:47:48;93589.81;;;10.66;100.00
9462;BME280;4769;42.660;23.262;2023-04-19T06:50:13;93576.78;;;10.91;99.78
9462;BME280;4769;42.660;23.262;2023-04-19T06:52:39;93584.00;;;11.06;98.92
9462;BME280;4769;42.660;23.262;2023-04-19T06:55:05;93592.84;;;10.90;98.38
9462;BME280;4769;42.660;23.262;2023-04-19T06:57:32;93600.50;;;10.91;98.76
9462;BME280;4769;42.660;23.262;2023-04-19T06:59:58;93592.69;;;10.65;98.71
9462;BME280;4769;42.660;23.262;2023-04-19T07:02:24;93594.66;;;10.84;99.34
9462;BME280;4769;42.660;23.262;2023-04-19T07:04:52;93597.06;;;10.91;99.20
9462;BME280;4769;42.660;23.262;2023-04-19T07:07:18;93595.25;;;10.91;98.78
9462;BME280;4769;42.660;23.262;2023-04-19T07:09:44;93594.00;;;11.04;98.28
9462;BME280;4769;42.660;23.262;2023-04-19T07:12:09;93595.63;;;11.15;97.79
9462;BME280;4769;42.660;23.262;2023-04-19T07:14:35;93591.16;;;11.15;97.77
9462;BME280;4769;42.660;23.262;2023-04-19T07:17:03;93597.75;;;11.13;97.01
9462;BME280;4769;42.660;23.262;2023-04-19T07:19:28;93588.88;;;10.87;98.03
9462;BME280;4769;42.660;23.262;2023-04-19T07:21:57;93604.53;;;11.04;97.76
9462;BME280;4769;42.660;23.262;2023-04-19T07:24:22;93593.84;;;11.25;97.09
9462;BME280;4769;42.660;23.262;2023-04-19T07:26:48;93601.25;;;11.28;96.68
9462;BME280;4769;42.660;23.262;2023-04-19T07:29:14;93610.06;;;11.49;95.98
9462;BME280;4769;42.660;23.262;2023-04-19T07:31:39;93603.69;;;11.40;96.31
9462;BME280;4769;42.660;23.262;2023-04-19T07:34:05;93601.97;;;11.19;96.22
9462;BME280;4769;42.660;23.262;2023-04-19T07:36:31;93608.03;;;11.14;95.99
9462;BME280;4769;42.660;23.262;2023-04-19T07:38:59;93607.22;;;11.09;97.10
9462;BME280;4769;42.660;23.262;2023-04-19T07:41:25;93599.94;;;11.26;96.03
9462;BME280;4769;42.660;23.262;2023-04-19T07:43:50;93601.56;;;10.90;97.84
9462;BME280;4769;42.660;23.262;2023-04-19T07:46:16;93594.03;;;11.14;97.19
9462;BME280;4769;42.660;23.262;2023-04-19T07:48:42;93592.84;;;11.36;97.28
9462;BME280;4769;42.660;23.262;2023-04-19T07:51:09;93589.03;;;11.69;94.61
9462;BME280;4769;42.660;23.262;2023-04-19T07:53:35;93594.31;;;11.69;93.63
9462;BME280;4769;42.660;23.262;2023-04-19T07:56:04;93581.66;;;11.71;93.43
9462;BME280;4769;42.660;23.262;2023-04-19T07:58:30;93593.34;;;11.95;92.08
9462;BME280;4769;42.660;23.262;2023-04-19T08:00:55;93591.25;;;12.07;91.59
9462;BME280;4769;42.660;23.262;2023-04-19T08:03:21;93594.97;;;12.06;91.93
9462;BME280;4769;42.660;23.262;2023-04-19T08:05:47;93597.31;;;11.87;91.82
9462;BME280;4769;42.660;23.262;2023-04-19T08:08:12;93589.63;;;11.86;92.52
9462;BME280;4769;42.660;23.262;2023-04-19T08:10:38;93596.50;;;11.87;92.04
9462;BME280;4769;42.660;23.262;2023-04-19T08:13:06;93586.69;;;11.77;92.43
9462;BME280;4769;42.660;23.262;2023-04-19T08:15:32;93596.25;;;11.88;92.72
9462;BME280;4769;42.660;23.262;2023-04-19T08:17:58;93603.38;;;11.88;92.18
9462;BME280;4769;42.660;23.262;2023-04-19T08:20:24;93590.13;;;11.73;92.37
9462;BME280;4769;42.660;23.262;2023-04-19T08:22:50;93589.88;;;11.79;92.88
9462;BME280;4769;42.660;23.262;2023-04-19T08:25:15;93603.25;;;11.58;92.30
9462;BME280;4769;42.660;23.262;2023-04-19T08:27:41;93602.50;;;11.67;93.18
9462;BME280;4769;42.660;23.262;2023-04-19T08:30:10;93587.72;;;11.71;92.40
9462;BME280;4769;42.660;23.262;2023-04-19T08:32:36;93602.63;;;12.17;91.60
9462;BME280;4769;42.660;23.262;2023-04-19T08:35:02;93587.84;;;12.26;90.54
9462;BME280;4769;42.660;23.262;2023-04-19T08:37:27;93593.63;;;12.03;90.98
9462;BME280;4769;42.660;23.262;2023-04-19T08:39:53;93599.25;;;12.32;91.04
9462;BME280;4769;42.660;23.262;2023-04-19T08:42:19;93597.66;;;12.51;89.44
9462;BME280;4769;42.660;23.262;2023-04-19T08:44:45;93588.09;;;12.15;89.52
9462;BME280;4769;42.660;23.262;2023-04-19T08:47:14;93589.19;;;12.59;88.94
9462;BME280;4769;42.660;23.262;2023-04-19T08:49:42;93587.59;;;12.78;87.55
9462;BME280;4769;42.660;23.262;2023-04-19T08:52:12;93573.59;;;12.67;86.39
9462;BME280;4769;42.660;23.262;2023-04-19T08:54:38;93586.25;;;12.70;86.08
9462;BME280;4769;42.660;23.262;2023-04-19T08:57:04;93572.22;;;13.05;85.22
9462;BME280;4769;42.660;23.262;2023-04-19T08:59:29;93577.03;;;12.83;86.09
9462;BME280;4769;42.660;23.262;2023-04-19T09:01:55;93579.66;;;12.93;85.83
9462;BME280;4769;42.660;23.262;2023-04-19T09:04:24;93574.56;;;13.26;85.56
9462;BME280;4769;42.660;23.262;2023-04-19T09:06:50;93568.28;;;13.71;83.30
9462;BME280;4769;42.660;23.262;2023-04-19T09:09:17;93571.69;;;13.13;84.04
9462;BME280;4769;42.660;23.262;2023-04-19T09:11:42;93574.31;;;13.23;84.01
9462;BME280;4769;42.660;23.262;2023-04-19T09:14:08;93569.56;;;13.15;84.40
9462;BME280;4769;42.660;23.262;2023-04-19T09:16:34;93566.88;;;13.35;82.56
9462;BME280;4769;42.660;23.262;2023-04-19T09:19:00;93552.81;;;13.39;81.40
9462;BME280;4769;42.660;23.262;2023-04-19T09:21:34;93561.47;;;13.60;80.62
9462;BME280;4769;42.660;23.262;2023-04-19T09:24:00;93557.19;;;14.18;78.88
9462;BME280;4769;42.660;23.262;2023-04-19T09:26:26;93557.06;;;14.38;77.17
9462;BME280;4769;42.660;23.262;2023-04-19T09:28:56;93544.16;;;14.26;77.46
9462;BME280;4769;42.660;23.262;2023-04-19T09:31:21;93556.47;;;14.02;78.60
9462;BME280;4769;42.660;23.262;2023-04-19T09:33:47;93551.50;;;14.39;75.21
9462;BME280;4769;42.660;23.262;2023-04-19T09:36:26;93541.09;;;14.76;74.42
9462;BME280;4769;42.660;23.262;2023-04-19T09:38:54;93546.78;;;14.93;72.92
9462;BME280;4769;42.660;23.262;2023-04-19T09:41:20;93557.75;;;14.53;75.03
9462;BME280;4769;42.660;23.262;2023-04-19T09:43:46;93552.34;;;14.63;74.42
9462;BME280;4769;42.660;23.262;2023-04-19T09:46:30;93540.25;;;14.52;73.58
9462;BME280;4769;42.660;23.262;2023-04-19T09:49:14;93542.53;;;14.64;73.45
9462;BME280;4769;42.660;23.262;2023-04-19T09:51:40;93534.13;;;15.14;73.90
9462;BME280;4769;42.660;23.262;2023-04-19T09:54:10;93543.34;;;15.68;70.19
9462;BME280;4769;42.660;23.262;2023-04-19T09:56:36;93532.72;;;15.68;70.45
9462;BME280;4769;42.660;23.262;2023-04-19T09:59:03;93546.19;;;15.25;69.96
9462;BME280;4769;42.660;23.262;2023-04-19T10:01:30;93539.75;;;14.79;71.11
9462;BME280;4769;42.660;23.262;2023-04-19T10:03:58;93545.59;;;14.47;71.99
9462;BME280;4769;42.660;23.262;2023-04-19T10:06:24;93544.38;;;14.35;72.28
9462;BME280;4769;42.660;23.262;2023-04-19T10:08:52;93527.03;;;15.04;71.30
9462;BME280;4769;42.660;23.262;2023-04-19T10:11:21;93532.78;;;15.63;67.33
9462;BME280;4769;42.660;23.262;2023-04-19T10:13:48;93520.66;;;15.52;66.73
9462;BME280;4769;42.660;23.262;2023-04-19T10:16:15;93535.09;;;15.88;67.89
9462;BME280;4769;42.660;23.262;2023-04-19T10:18:41;93519.56;;;15.77;66.62
9462;BME280;4769;42.660;23.262;2023-04-19T10:21:08;93526.41;;;16.01;65.35
9462;BME280;4769;42.660;23.262;2023-04-19T10:23:36;93514.91;;;16.06;65.22
9462;BME280;4769;42.660;23.262;2023-04-19T10:26:02;93521.59;;;16.40;65.65
9462;BME280;4769;42.660;23.262;2023-04-19T10:28:30;93511.69;;;16.78;64.33
9462;BME280;4769;42.660;23.262;2023-04-19T10:30:59;93514.75;;;16.16;65.25
9462;BME280;4769;42.660;23.262;2023-04-19T10:33:25;93518.41;;;15.64;67.21
9462;BME280;4769;42.660;23.262;2023-04-19T10:35:54;93506.34;;;16.09;65.82
9462;BME280;4769;42.660;23.262;2023-04-19T10:38:34;93505.88;;;16.39;63.92
9462;BME280;4769;42.660;23.262;2023-04-19T10:41:01;93492.69;;;15.97;62.94
9462;BME280;4769;42.660;23.262;2023-04-19T10:43:30;93494.22;;;16.03;63.17
9462;BME280;4769;42.660;23.262;2023-04-19T10:45:58;93499.59;;;16.35;62.68
9462;BME280;4769;42.660;23.262;2023-04-19T10:48:38;93484.28;;;16.91;59.29
9462;BME280;4769;42.660;23.262;2023-04-19T10:51:10;93496.22;;;16.93;57.33
9462;BME280;4769;42.660;23.262;2023-04-19T10:53:48;93495.25;;;17.03;58.58
9462;BME280;4769;42.660;23.262;2023-04-19T10:56:14;93494.69;;;17.73;56.85
9462;BME280;4769;42.660;23.262;2023-04-19T10:59:13;93499.66;;;17.39;59.22
9462;BME280;4769;42.660;23.262;2023-04-19T11:01:40;93495.09;;;16.81;59.98
9462;BME280;4769;42.660;23.262;2023-04-19T11:04:06;93488.81;;;15.71;64.51
9462;BME280;4769;42.660;23.262;2023-04-19T11:06:32;93487.13;;;16.30;62.49
9462;BME280;4769;42.660;23.262;2023-04-19T11:08:58;93486.41;;;16.25;62.56
9462;BME280;4769;42.660;23.262;2023-04-19T11:11:24;93480.63;;;16.87;61.11
9462;BME280;4769;42.660;23.262;2023-04-19T11:13:50;93466.25;;;17.15;59.87
9462;BME280;4769;42.660;23.262;2023-04-19T11:16:20;93489.84;;;17.35;58.89
9462;BME280;4769;42.660;23.262;2023-04-19T11:18:46;93493.91;;;16.73;57.95
9462;BME280;4769;42.660;23.262;2023-04-19T11:21:12;93479.66;;;16.96;58.67
9462;BME280;4769;42.660;23.262;2023-04-19T11:23:38;93481.03;;;16.94;59.40
9462;BME280;4769;42.660;23.262;2023-04-19T11:26:03;93483.47;;;17.49;57.36
9462;BME280;4769;42.660;23.262;2023-04-19T11:28:32;93474.00;;;17.92;56.15
9462;BME280;4769;42.660;23.262;2023-04-19T11:30:57;93478.53;;;18.27;55.75
9462;BME280;4769;42.660;23.262;2023-04-19T11:33:26;93479.88;;;17.27;56.89
9462;BME280;4769;42.660;23.262;2023-04-19T11:35:57;93483.72;;;17.61;56.43
9462;BME280;4769;42.660;23.262;2023-04-19T11:38:22;93484.84;;;18.09;55.73
9462;BME280;4769;42.660;23.262;2023-04-19T11:40:57;93480.78;;;17.63;55.30
9462;BME280;4769;42.660;23.262;2023-04-19T11:43:23;93477.88;;;18.44;52.77
9462;BME280;4769;42.660;23.262;2023-04-19T11:46:03;93476.19;;;18.70;48.53
9462;BME280;4769;42.660;23.262;2023-04-19T11:48:32;93478.75;;;19.05;48.15
9462;BME280;4769;42.660;23.262;2023-04-19T11:50:58;93472.66;;;19.52;47.88
9462;BME280;4769;42.660;23.262;2023-04-19T11:53:25;93466.56;;;19.60;45.30
9462;BME280;4769;42.660;23.262;2023-04-19T11:55:52;93452.53;;;19.55;45.98
9462;BME280;4769;42.660;23.262;2023-04-19T11:58:26;93454.88;;;19.09;46.50
9462;BME280;4769;42.660;23.262;2023-04-19T12:00:51;93453.00;;;20.13;44.79
9462;BME280;4769;42.660;23.262;2023-04-19T12:03:20;93447.41;;;19.75;45.61
9462;BME280;4769;42.660;23.262;2023-04-19T12:05:54;93458.44;;;19.26;46.91
9462;BME280;4769;42.660;23.262;2023-04-19T12:08:29;93452.69;;;17.79;51.09
9462;BME280;4769;42.660;23.262;2023-04-19T12:10:55;93456.06;;;17.71;51.02
9462;BME280;4769;42.660;23.262;2023-04-19T12:13:21;93451.63;;;17.66;51.70
9462;BME280;4769;42.660;23.262;2023-04-19T12:15:47;93452.84;;;17.96;51.67
9462;BME280;4769;42.660;23.262;2023-04-19T12:18:13;93442.81;;;19.20;48.68
9462;BME280;4769;42.660;23.262;2023-04-19T12:20:44;93434.13;;;19.45;47.18
9462;BME280;4769;42.660;23.262;2023-04-19T12:23:12;93436.81;;;19.53;47.21
9462;BME280;4769;42.660;23.262;2023-04-19T12:25:38;93436.88;;;19.87;46.87
9462;BME280;4769;42.660;23.262;2023-04-19T12:28:04;93431.38;;;20.69;41.54
9462;BME280;4769;42.660;23.262;2023-04-19T12:30:30;93434.97;;;20.64;43.28
9462;BME280;4769;42.660;23.262;2023-04-19T12:32:57;93438.97;;;19.04;47.56
9462;BME280;4769;42.660;23.262;2023-04-19T12:35:24;93451.06;;;17.56;51.27
9462;BME280;4769;42.660;23.262;2023-04-19T12:37:50;93441.69;;;17.31;52.13
9462;BME280;4769;42.660;23.262;2023-04-19T12:40:19;93444.63;;;17.30;51.76
9462;BME280;4769;42.660;23.262;2023-04-19T12:42:45;93442.78;;;17.30;52.26
9462;BME280;4769;42.660;23.262;2023-04-19T12:45:11;93437.63;;;17.47;52.76
9462;BME280;4769;42.660;23.262;2023-04-19T12:47:37;93429.31;;;17.62;53.78
9462;BME280;4769;42.660;23.262;2023-04-19T12:50:03;93426.09;;;18.45;50.98
9462;BME280;4769;42.660;23.262;2023-04-19T12:52:29;93442.84;;;18.01;51.08
9462;BME280;4769;42.660;23.262;2023-04-19T12:54:55;93439.41;;;18.67;50.02
9462;BME280;4769;42.660;23.262;2023-04-19T12:57:23;93432.84;;;19.34;48.00
9462;BME280;4769;42.660;23.262;2023-04-19T12:59:49;93447.38;;;18.58;49.27
9462;BME280;4769;42.660;23.262;2023-04-19T13:02:15;93439.06;;;17.80;51.28
9462;BME280;4769;42.660;23.262;2023-04-19T13:04:41;93430.44;;;17.21;54.30